Franconia, Virginia
Current Conditions -  °F | °C
As of 1:58 AM on Sunday 26 Oct 2014 (Local Time) from KDAA Reporting Station
Clear Clear  
Wind Chill: 47°   Ceiling: Unl
Heat Index: 47°   Visibility: 10mi
Dew Point: 45°   Wind: 0mph
Humidity: 94%   Direction: NA
Pressure: 29.7"   Gusts: NA
Location:  38.78°N, 77.15°W
Report Text: KDAA 260558Z AUTO 00000KT 10SM CLR 08/07 A2970 RMK AO2 SLP060 T00830074 10139 20079 56015
Loading
Personal Weather Stations






























Interactive Weather Map
Tropical Storm Tracking
New forecast layout! Learn more

10-Day Weather Forecast

Advertisements
Track Severe Weather on mobile